sensor_id;sensor_type;location;lat;lon;timestamp;temperature;humidity
796;DHT22;381;48.770;9.188;2022-07-22T00:02:46;22.80;91.90
796;DHT22;381;48.770;9.188;2022-07-22T00:07:49;22.80;92.10
796;DHT22;381;48.770;9.188;2022-07-22T00:12:51;22.80;92.50
796;DHT22;381;48.770;9.188;2022-07-22T00:17:53;22.80;92.30
796;DHT22;381;48.770;9.188;2022-07-22T00:22:58;22.70;91.60
796;DHT22;381;48.770;9.188;2022-07-22T00:28:01;22.70;92.70
796;DHT22;381;48.770;9.188;2022-07-22T00:33:05;22.70;93.00
796;DHT22;381;48.770;9.188;2022-07-22T00:38:09;22.60;91.90
796;DHT22;381;48.770;9.188;2022-07-22T00:43:11;22.60;92.20
796;DHT22;381;48.770;9.188;2022-07-22T00:48:13;22.50;92.30
796;DHT22;381;48.770;9.188;2022-07-22T00:53:17;22.50;91.80
796;DHT22;381;48.770;9.188;2022-07-22T00:58:19;22.40;92.30
796;DHT22;381;48.770;9.188;2022-07-22T01:03:22;22.40;92.30
796;DHT22;381;48.770;9.188;2022-07-22T01:08:26;22.40;92.50
796;DHT22;381;48.770;9.188;2022-07-22T01:13:28;22.40;92.50
796;DHT22;381;48.770;9.188;2022-07-22T01:18:30;22.30;92.20
796;DHT22;381;48.770;9.188;2022-07-22T01:23:34;22.20;92.40
796;DHT22;381;48.770;9.188;2022-07-22T01:28:36;22.30;93.10
796;DHT22;381;48.770;9.188;2022-07-22T01:33:39;22.20;92.60
796;DHT22;381;48.770;9.188;2022-07-22T01:38:43;22.20;93.10
796;DHT22;381;48.770;9.188;2022-07-22T01:43:45;22.20;92.40
796;DHT22;381;48.770;9.188;2022-07-22T01:48:49;22.20;92.70
796;DHT22;381;48.770;9.188;2022-07-22T01:53:53;22.20;93.40
796;DHT22;381;48.770;9.188;2022-07-22T01:58:55;22.10;93.40
796;DHT22;381;48.770;9.188;2022-07-22T02:04:01;22.10;93.80
796;DHT22;381;48.770;9.188;2022-07-22T02:09:05;22.10;93.50
796;DHT22;381;48.770;9.188;2022-07-22T02:14:13;22.10;93.40
796;DHT22;381;48.770;9.188;2022-07-22T02:19:16;22.00;93.80
796;DHT22;381;48.770;9.188;2022-07-22T02:24:21;22.00;93.70
796;DHT22;381;48.770;9.188;2022-07-22T02:29:23;21.90;93.80
796;DHT22;381;48.770;9.188;2022-07-22T02:34:25;21.90;93.80
796;DHT22;381;48.770;9.188;2022-07-22T02:39:29;21.90;93.90
796;DHT22;381;48.770;9.188;2022-07-22T02:44:31;21.90;94.10
796;DHT22;381;48.770;9.188;2022-07-22T02:49:34;21.80;93.90
796;DHT22;381;48.770;9.188;2022-07-22T02:54:38;21.70;94.20
796;DHT22;381;48.770;9.188;2022-07-22T02:59:41;21.70;94.30
796;DHT22;381;48.770;9.188;2022-07-22T03:04:44;21.70;94.60
796;DHT22;381;48.770;9.188;2022-07-22T03:09:47;21.70;94.60
796;DHT22;381;48.770;9.188;2022-07-22T03:14:51;21.60;94.30
796;DHT22;381;48.770;9.188;2022-07-22T03:19:57;21.60;94.80
796;DHT22;381;48.770;9.188;2022-07-22T03:25:02;21.60;95.10
796;DHT22;381;48.770;9.188;2022-07-22T03:30:05;21.50;94.50
796;DHT22;381;48.770;9.188;2022-07-22T03:35:13;21.50;94.60
796;DHT22;381;48.770;9.188;2022-07-22T03:40:19;21.50;94.40
796;DHT22;381;48.770;9.188;2022-07-22T03:45:23;21.50;94.70
796;DHT22;381;48.770;9.188;2022-07-22T03:50:25;21.50;95.40
796;DHT22;381;48.770;9.188;2022-07-22T03:55:29;21.40;95.60
796;DHT22;381;48.770;9.188;2022-07-22T04:00:31;21.40;95.70
796;DHT22;381;48.770;9.188;2022-07-22T04:05:36;21.40;95.90
796;DHT22;381;48.770;9.188;2022-07-22T04:10:40;21.30;96.00
796;DHT22;381;48.770;9.188;2022-07-22T04:15:42;21.30;95.30
796;DHT22;381;48.770;9.188;2022-07-22T04:20:45;21.30;95.90
796;DHT22;381;48.770;9.188;2022-07-22T04:26:10;21.30;96.10
796;DHT22;381;48.770;9.188;2022-07-22T04:31:12;21.30;96.40
796;DHT22;381;48.770;9.188;2022-07-22T04:36:17;21.30;96.40
796;DHT22;381;48.770;9.188;2022-07-22T04:41:21;21.30;96.90
796;DHT22;381;48.770;9.188;2022-07-22T04:46:24;21.40;96.40
796;DHT22;381;48.770;9.188;2022-07-22T04:51:29;21.40;96.70
796;DHT22;381;48.770;9.188;2022-07-22T04:56:38;21.40;96.30
796;DHT22;381;48.770;9.188;2022-07-22T05:01:41;21.40;96.00
796;DHT22;381;48.770;9.188;2022-07-22T05:06:44;21.50;96.40
796;DHT22;381;48.770;9.188;2022-07-22T05:11:47;21.50;96.70
796;DHT22;381;48.770;9.188;2022-07-22T05:16:53;21.60;96.20
796;DHT22;381;48.770;9.188;2022-07-22T05:21:55;21.70;96.00
796;DHT22;381;48.770;9.188;2022-07-22T05:26:58;21.70;96.00
796;DHT22;381;48.770;9.188;2022-07-22T05:32:01;21.70;96.30
796;DHT22;381;48.770;9.188;2022-07-22T05:37:03;21.80;96.20
796;DHT22;381;48.770;9.188;2022-07-22T05:42:07;21.80;95.90
796;DHT22;381;48.770;9.188;2022-07-22T05:47:09;21.90;96.10
796;DHT22;381;48.770;9.188;2022-07-22T05:52:11;21.90;96.20
796;DHT22;381;48.770;9.188;2022-07-22T05:57:15;22.00;96.30
796;DHT22;381;48.770;9.188;2022-07-22T06:02:19;22.00;95.80
796;DHT22;381;48.770;9.188;2022-07-22T06:07:23;22.10;96.20
796;DHT22;381;48.770;9.188;2022-07-22T06:12:34;22.10;95.70
796;DHT22;381;48.770;9.188;2022-07-22T06:17:36;22.20;95.80
796;DHT22;381;48.770;9.188;2022-07-22T06:22:39;22.20;96.40
796;DHT22;381;48.770;9.188;2022-07-22T06:27:43;22.20;96.20
796;DHT22;381;48.770;9.188;2022-07-22T06:32:45;22.30;96.40
796;DHT22;381;48.770;9.188;2022-07-22T06:37:48;22.40;96.00
796;DHT22;381;48.770;9.188;2022-07-22T06:42:51;22.50;95.90
796;DHT22;381;48.770;9.188;2022-07-22T06:48:20;22.60;95.50
796;DHT22;381;48.770;9.188;2022-07-22T06:53:22;22.80;95.70
796;DHT22;381;48.770;9.188;2022-07-22T06:58:26;22.90;95.40
796;DHT22;381;48.770;9.188;2022-07-22T07:03:29;23.10;95.50
796;DHT22;381;48.770;9.188;2022-07-22T07:08:34;23.30;94.90
796;DHT22;381;48.770;9.188;2022-07-22T07:13:38;23.40;94.40
796;DHT22;381;48.770;9.188;2022-07-22T07:18:41;23.60;94.40
796;DHT22;381;48.770;9.188;2022-07-22T07:23:43;23.80;93.70
796;DHT22;381;48.770;9.188;2022-07-22T07:28:47;23.90;93.90
796;DHT22;381;48.770;9.188;2022-07-22T07:33:55;24.10;93.20
796;DHT22;381;48.770;9.188;2022-07-22T07:38:58;24.30;93.00
796;DHT22;381;48.770;9.188;2022-07-22T07:44:01;24.60;92.40
796;DHT22;381;48.770;9.188;2022-07-22T07:49:04;24.70;92.00
796;DHT22;381;48.770;9.188;2022-07-22T07:54:06;25.00;92.40
796;DHT22;381;48.770;9.188;2022-07-22T07:59:10;25.20;92.60
796;DHT22;381;48.770;9.188;2022-07-22T08:04:12;25.40;91.50
796;DHT22;381;48.770;9.188;2022-07-22T08:09:14;25.60;91.70
796;DHT22;381;48.770;9.188;2022-07-22T08:14:18;25.80;91.10
796;DHT22;381;48.770;9.188;2022-07-22T08:19:39;26.00;90.70
796;DHT22;381;48.770;9.188;2022-07-22T08:24:41;26.20;91.00
796;DHT22;381;48.770;9.188;2022-07-22T08:29:50;26.40;90.50
796;DHT22;381;48.770;9.188;2022-07-22T08:34:53;26.70;88.80
796;DHT22;381;48.770;9.188;2022-07-22T08:39:55;27.00;88.20
796;DHT22;381;48.770;9.188;2022-07-22T08:44:59;27.30;89.10
796;DHT22;381;48.770;9.188;2022-07-22T08:50:03;27.70;86.90
796;DHT22;381;48.770;9.188;2022-07-22T08:55:15;28.20;85.60
796;DHT22;381;48.770;9.188;2022-07-22T09:00:21;28.70;83.40
796;DHT22;381;48.770;9.188;2022-07-22T09:05:32;29.10;82.60
796;DHT22;381;48.770;9.188;2022-07-22T09:10:36;29.70;81.90
796;DHT22;381;48.770;9.188;2022-07-22T09:15:58;30.20;78.80
796;DHT22;381;48.770;9.188;2022-07-22T09:21:13;30.60;76.50
796;DHT22;381;48.770;9.188;2022-07-22T09:26:34;31.10;75.60
796;DHT22;381;48.770;9.188;2022-07-22T09:31:56;31.50;73.90
796;DHT22;381;48.770;9.188;2022-07-22T09:37:17;31.80;72.30
796;DHT22;381;48.770;9.188;2022-07-22T09:42:21;32.10;72.20
796;DHT22;381;48.770;9.188;2022-07-22T09:47:30;32.40;71.10
796;DHT22;381;48.770;9.188;2022-07-22T09:52:56;32.80;69.50
796;DHT22;381;48.770;9.188;2022-07-22T09:58:03;33.30;67.20
796;DHT22;381;48.770;9.188;2022-07-22T10:03:16;33.80;65.80
796;DHT22;381;48.770;9.188;2022-07-22T10:08:20;34.70;64.40
796;DHT22;381;48.770;9.188;2022-07-22T10:13:23;35.70;61.00
796;DHT22;381;48.770;9.188;2022-07-22T10:18:27;36.80;59.50
796;DHT22;381;48.770;9.188;2022-07-22T10:23:32;37.80;56.70
796;DHT22;381;48.770;9.188;2022-07-22T10:28:37;37.80;55.80
796;DHT22;381;48.770;9.188;2022-07-22T10:33:40;36.40;56.00
796;DHT22;381;48.770;9.188;2022-07-22T10:39:03;34.90;59.30
796;DHT22;381;48.770;9.188;2022-07-22T10:44:06;33.50;61.00
796;DHT22;381;48.770;9.188;2022-07-22T10:49:10;32.50;62.40
796;DHT22;381;48.770;9.188;2022-07-22T10:54:12;31.60;63.40
796;DHT22;381;48.770;9.188;2022-07-22T10:59:16;30.90;66.60
796;DHT22;381;48.770;9.188;2022-07-22T11:04:23;30.40;68.30
796;DHT22;381;48.770;9.188;2022-07-22T11:09:31;30.00;68.30
796;DHT22;381;48.770;9.188;2022-07-22T11:14:34;29.60;71.30
796;DHT22;381;48.770;9.188;2022-07-22T11:19:38;29.40;70.20
796;DHT22;381;48.770;9.188;2022-07-22T11:24:41;29.20;70.40
796;DHT22;381;48.770;9.188;2022-07-22T11:29:48;29.00;72.10
796;DHT22;381;48.770;9.188;2022-07-22T11:34:52;28.90;71.80
796;DHT22;381;48.770;9.188;2022-07-22T11:39:59;28.80;69.70
796;DHT22;381;48.770;9.188;2022-07-22T11:45:02;28.60;70.80
796;DHT22;381;48.770;9.188;2022-07-22T11:50:06;28.60;67.70
796;DHT22;381;48.770;9.188;2022-07-22T11:55:15;28.60;67.40
796;DHT22;381;48.770;9.188;2022-07-22T12:00:17;28.60;67.80
796;DHT22;381;48.770;9.188;2022-07-22T12:05:21;28.50;71.20
796;DHT22;381;48.770;9.188;2022-07-22T12:10:24;28.50;69.80
796;DHT22;381;48.770;9.188;2022-07-22T12:15:26;28.50;70.40
796;DHT22;381;48.770;9.188;2022-07-22T12:20:30;28.40;73.60
796;DHT22;381;48.770;9.188;2022-07-22T12:25:32;28.40;72.50
796;DHT22;381;48.770;9.188;2022-07-22T12:30:34;28.40;72.30
796;DHT22;381;48.770;9.188;2022-07-22T12:35:37;28.30;70.20
796;DHT22;381;48.770;9.188;2022-07-22T12:40:39;28.30;70.00
796;DHT22;381;48.770;9.188;2022-07-22T12:45:41;28.30;71.00
796;DHT22;381;48.770;9.188;2022-07-22T12:50:54;28.30;69.90
796;DHT22;381;48.770;9.188;2022-07-22T12:55:58;28.40;70.50
796;DHT22;381;48.770;9.188;2022-07-22T13:01:01;28.50;68.60
796;DHT22;381;48.770;9.188;2022-07-22T13:06:05;28.50;70.30
796;DHT22;381;48.770;9.188;2022-07-22T13:11:11;28.60;69.20
796;DHT22;381;48.770;9.188;2022-07-22T13:16:13;28.60;70.10
796;DHT22;381;48.770;9.188;2022-07-22T13:21:16;28.70;67.20
796;DHT22;381;48.770;9.188;2022-07-22T13:26:19;28.70;67.10
796;DHT22;381;48.770;9.188;2022-07-22T13:31:21;28.70;64.20
796;DHT22;381;48.770;9.188;2022-07-22T13:36:25;28.70;64.80
796;DHT22;381;48.770;9.188;2022-07-22T13:41:29;28.80;65.50
796;DHT22;381;48.770;9.188;2022-07-22T13:46:31;28.70;67.50
796;DHT22;381;48.770;9.188;2022-07-22T13:51:34;28.70;67.20
796;DHT22;381;48.770;9.188;2022-07-22T13:56:36;28.70;68.90
796;DHT22;381;48.770;9.188;2022-07-22T14:01:38;28.70;66.70
796;DHT22;381;48.770;9.188;2022-07-22T14:06:42;28.70;65.30
796;DHT22;381;48.770;9.188;2022-07-22T14:11:44;28.80;68.70
796;DHT22;381;48.770;9.188;2022-07-22T14:16:47;28.70;69.70
796;DHT22;381;48.770;9.188;2022-07-22T14:21:50;28.60;71.60
796;DHT22;381;48.770;9.188;2022-07-22T14:26:52;28.60;66.70
796;DHT22;381;48.770;9.188;2022-07-22T14:31:54;28.70;69.00
796;DHT22;381;48.770;9.188;2022-07-22T14:36:58;28.70;69.50
796;DHT22;381;48.770;9.188;2022-07-22T14:42:00;28.70;66.10
796;DHT22;381;48.770;9.188;2022-07-22T14:47:02;28.70;67.90
796;DHT22;381;48.770;9.188;2022-07-22T14:52:05;28.80;65.40
796;DHT22;381;48.770;9.188;2022-07-22T14:57:07;28.80;64.40
796;DHT22;381;48.770;9.188;2022-07-22T15:02:09;28.80;65.00
796;DHT22;381;48.770;9.188;2022-07-22T15:07:13;28.90;63.90
796;DHT22;381;48.770;9.188;2022-07-22T15:12:15;28.90;64.10
796;DHT22;381;48.770;9.188;2022-07-22T15:17:17;28.90;66.20
796;DHT22;381;48.770;9.188;2022-07-22T15:22:21;28.80;67.70
796;DHT22;381;48.770;9.188;2022-07-22T15:27:25;28.70;69.60
796;DHT22;381;48.770;9.188;2022-07-22T15:32:28;28.70;68.60
796;DHT22;381;48.770;9.188;2022-07-22T15:37:31;28.60;67.60
796;DHT22;381;48.770;9.188;2022-07-22T15:42:33;28.50;67.40
796;DHT22;381;48.770;9.188;2022-07-22T15:47:35;28.60;66.90
796;DHT22;381;48.770;9.188;2022-07-22T15:52:39;28.60;65.30
796;DHT22;381;48.770;9.188;2022-07-22T15:57:41;28.60;65.60
796;DHT22;381;48.770;9.188;2022-07-22T16:03:01;28.80;67.50
796;DHT22;381;48.770;9.188;2022-07-22T16:08:04;28.70;67.50
796;DHT22;381;48.770;9.188;2022-07-22T16:13:07;28.70;72.20
796;DHT22;381;48.770;9.188;2022-07-22T16:18:09;28.60;64.70
796;DHT22;381;48.770;9.188;2022-07-22T16:23:14;28.60;68.30
796;DHT22;381;48.770;9.188;2022-07-22T16:28:16;28.50;66.20
796;DHT22;381;48.770;9.188;2022-07-22T16:33:18;28.50;68.60
796;DHT22;381;48.770;9.188;2022-07-22T16:38:21;28.50;63.20
796;DHT22;381;48.770;9.188;2022-07-22T16:43:24;28.70;66.10
796;DHT22;381;48.770;9.188;2022-07-22T16:48:26;28.90;65.40
796;DHT22;381;48.770;9.188;2022-07-22T16:53:29;29.00;66.30
796;DHT22;381;48.770;9.188;2022-07-22T16:58:31;29.20;62.60
796;DHT22;381;48.770;9.188;2022-07-22T17:03:34;29.20;65.20
796;DHT22;381;48.770;9.188;2022-07-22T17:08:37;29.10;64.80
796;DHT22;381;48.770;9.188;2022-07-22T17:13:40;29.00;65.50
796;DHT22;381;48.770;9.188;2022-07-22T17:18:45;29.00;65.60
796;DHT22;381;48.770;9.188;2022-07-22T17:23:48;29.10;64.50
796;DHT22;381;48.770;9.188;2022-07-22T17:28:53;29.10;68.70
796;DHT22;381;48.770;9.188;2022-07-22T17:33:56;29.00;65.00
796;DHT22;381;48.770;9.188;2022-07-22T17:38:59;29.00;65.90
796;DHT22;381;48.770;9.188;2022-07-22T17:44:01;28.90;68.00
796;DHT22;381;48.770;9.188;2022-07-22T17:49:03;28.90;66.60
796;DHT22;381;48.770;9.188;2022-07-22T17:54:08;28.90;64.70
796;DHT22;381;48.770;9.188;2022-07-22T17:59:10;28.90;65.90
796;DHT22;381;48.770;9.188;2022-07-22T18:04:12;29.00;67.60
796;DHT22;381;48.770;9.188;2022-07-22T18:09:15;29.00;67.30
796;DHT22;381;48.770;9.188;2022-07-22T18:14:18;29.00;67.60
796;DHT22;381;48.770;9.188;2022-07-22T18:19:20;29.00;67.80
796;DHT22;381;48.770;9.188;2022-07-22T18:24:23;28.90;68.40
796;DHT22;381;48.770;9.188;2022-07-22T18:29:25;28.80;67.20
796;DHT22;381;48.770;9.188;2022-07-22T18:34:28;28.70;67.70
796;DHT22;381;48.770;9.188;2022-07-22T18:39:31;28.60;66.80
796;DHT22;381;48.770;9.188;2022-07-22T18:44:34;28.50;67.50
796;DHT22;381;48.770;9.188;2022-07-22T18:49:36;28.40;67.60
796;DHT22;381;48.770;9.188;2022-07-22T18:54:40;28.40;67.00
796;DHT22;381;48.770;9.188;2022-07-22T18:59:42;28.30;68.50
796;DHT22;381;48.770;9.188;2022-07-22T19:04:44;28.20;68.50
796;DHT22;381;48.770;9.188;2022-07-22T19:09:47;28.00;69.10
796;DHT22;381;48.770;9.188;2022-07-22T19:14:49;27.90;69.80
796;DHT22;381;48.770;9.188;2022-07-22T19:19:51;27.80;70.90
796;DHT22;381;48.770;9.188;2022-07-22T19:24:55;27.70;71.70
796;DHT22;381;48.770;9.188;2022-07-22T19:29:57;27.60;71.20
796;DHT22;381;48.770;9.188;2022-07-22T19:34:59;27.60;73.20
796;DHT22;381;48.770;9.188;2022-07-22T19:40:03;27.50;76.40
796;DHT22;381;48.770;9.188;2022-07-22T19:45:06;27.40;74.50
796;DHT22;381;48.770;9.188;2022-07-22T19:50:09;27.40;77.40
796;DHT22;381;48.770;9.188;2022-07-22T19:55:12;27.20;75.30
796;DHT22;381;48.770;9.188;2022-07-22T20:00:15;27.20;75.40
796;DHT22;381;48.770;9.188;2022-07-22T20:05:17;27.20;75.80
796;DHT22;381;48.770;9.188;2022-07-22T20:10:20;27.10;77.00
796;DHT22;381;48.770;9.188;2022-07-22T20:15:34;27.00;77.50
796;DHT22;381;48.770;9.188;2022-07-22T20:20:41;26.90;77.70
796;DHT22;381;48.770;9.188;2022-07-22T20:25:45;26.80;78.70
796;DHT22;381;48.770;9.188;2022-07-22T20:30:47;26.70;78.90
796;DHT22;381;48.770;9.188;2022-07-22T20:35:49;26.60;77.90
796;DHT22;381;48.770;9.188;2022-07-22T20:40:53;26.60;78.60
796;DHT22;381;48.770;9.188;2022-07-22T20:45:55;26.50;78.50
796;DHT22;381;48.770;9.188;2022-07-22T20:50:57;26.50;78.70
796;DHT22;381;48.770;9.188;2022-07-22T20:56:01;26.50;79.10
796;DHT22;381;48.770;9.188;2022-07-22T21:01:03;26.40;78.80
796;DHT22;381;48.770;9.188;2022-07-22T21:06:05;26.50;79.00
796;DHT22;381;48.770;9.188;2022-07-22T21:11:10;26.40;80.50
796;DHT22;381;48.770;9.188;2022-07-22T21:16:15;26.40;80.40
796;DHT22;381;48.770;9.188;2022-07-22T21:21:17;26.40;81.30
796;DHT22;381;48.770;9.188;2022-07-22T21:26:21;26.40;80.70
796;DHT22;381;48.770;9.188;2022-07-22T21:31:23;26.30;80.10
796;DHT22;381;48.770;9.188;2022-07-22T21:36:25;26.30;80.70
796;DHT22;381;48.770;9.188;2022-07-22T21:41:28;26.30;81.10
796;DHT22;381;48.770;9.188;2022-07-22T21:46:30;26.30;81.40
796;DHT22;381;48.770;9.188;2022-07-22T21:51:33;26.20;81.30
796;DHT22;381;48.770;9.188;2022-07-22T21:56:36;26.20;80.80
796;DHT22;381;48.770;9.188;2022-07-22T22:01:59;26.30;80.50
796;DHT22;381;48.770;9.188;2022-07-22T22:07:02;26.20;82.90
796;DHT22;381;48.770;9.188;2022-07-22T22:12:06;26.20;85.70
796;DHT22;381;48.770;9.188;2022-07-22T22:17:08;26.20;83.70
796;DHT22;381;48.770;9.188;2022-07-22T22:22:10;26.20;86.50
796;DHT22;381;48.770;9.188;2022-07-22T22:27:14;26.10;85.80
796;DHT22;381;48.770;9.188;2022-07-22T22:32:16;26.10;85.80
796;DHT22;381;48.770;9.188;2022-07-22T22:37:18;26.10;82.40
796;DHT22;381;48.770;9.188;2022-07-22T22:42:21;26.10;84.30
796;DHT22;381;48.770;9.188;2022-07-22T22:47:23;25.90;88.60
796;DHT22;381;48.770;9.188;2022-07-22T22:52:25;25.80;90.40
796;DHT22;381;48.770;9.188;2022-07-22T22:57:29;25.90;90.50
796;DHT22;381;48.770;9.188;2022-07-22T23:02:32;25.90;87.50
796;DHT22;381;48.770;9.188;2022-07-22T23:07:34;25.90;86.80
796;DHT22;381;48.770;9.188;2022-07-22T23:12:38;25.90;85.60
796;DHT22;381;48.770;9.188;2022-07-22T23:17:40;25.90;85.40
796;DHT22;381;48.770;9.188;2022-07-22T23:22:42;25.90;86.40
796;DHT22;381;48.770;9.188;2022-07-22T23:27:45;25.90;84.10
796;DHT22;381;48.770;9.188;2022-07-22T23:32:48;25.90;83.10
796;DHT22;381;48.770;9.188;2022-07-22T23:37:50;25.90;82.40
796;DHT22;381;48.770;9.188;2022-07-22T23:42:54;25.90;78.80
796;DHT22;381;48.770;9.188;2022-07-22T23:47:56;25.90;75.90
796;DHT22;381;48.770;9.188;2022-07-22T23:52:58;26.00;76.90
796;DHT22;381;48.770;9.188;2022-07-22T23:58:02;26.00;75.70
